sensor_id;sensor_type;location;lat;lon;timestamp;P1;durP1;ratioP1;P2;durP2;ratioP2
8580;SDS011;4328;48.622;9.230;2022-11-03T00:02:17;4.67;;;4.23;;
8580;SDS011;4328;48.622;9.230;2022-11-03T00:04:43;5.23;;;4.03;;
8580;SDS011;4328;48.622;9.230;2022-11-03T00:07:10;6.20;;;4.07;;
8580;SDS011;4328;48.622;9.230;2022-11-03T00:09:36;7.90;;;3.87;;
8580;SDS011;4328;48.622;9.230;2022-11-03T00:12:02;5.43;;;3.90;;
8580;SDS011;4328;48.622;9.230;2022-11-03T00:14:29;7.40;;;4.37;;
8580;SDS011;4328;48.622;9.230;2022-11-03T00:16:56;4.30;;;3.90;;
8580;SDS011;4328;48.622;9.230;2022-11-03T00:19:24;5.47;;;4.20;;
8580;SDS011;4328;48.622;9.230;2022-11-03T00:21:50;6.50;;;3.87;;
8580;SDS011;4328;48.622;9.230;2022-11-03T00:24:17;10.17;;;3.97;;
8580;SDS011;4328;48.622;9.230;2022-11-03T00:26:43;4.27;;;3.80;;
8580;SDS011;4328;48.622;9.230;2022-11-03T00:29:11;5.37;;;3.43;;
8580;SDS011;4328;48.622;9.230;2022-11-03T00:31:38;4.63;;;3.30;;
8580;SDS011;4328;48.622;9.230;2022-11-03T00:34:05;5.00;;;3.80;;
8580;SDS011;4328;48.622;9.230;2022-11-03T00:36:34;4.57;;;3.53;;
8580;SDS011;4328;48.622;9.230;2022-11-03T00:39:00;5.40;;;3.80;;
8580;SDS011;4328;48.622;9.230;2022-11-03T00:41:27;6.23;;;3.80;;
8580;SDS011;4328;48.622;9.230;2022-11-03T00:43:54;5.90;;;4.17;;
8580;SDS011;4328;48.622;9.230;2022-11-03T00:46:21;5.80;;;3.70;;
8580;SDS011;4328;48.622;9.230;2022-11-03T00:48:48;5.43;;;3.53;;
8580;SDS011;4328;48.622;9.230;2022-11-03T00:51:15;6.67;;;4.17;;
8580;SDS011;4328;48.622;9.230;2022-11-03T00:53:44;5.67;;;3.70;;
8580;SDS011;4328;48.622;9.230;2022-11-03T00:56:11;5.13;;;3.17;;
8580;SDS011;4328;48.622;9.230;2022-11-03T00:58:39;5.03;;;3.50;;
8580;SDS011;4328;48.622;9.230;2022-11-03T01:01:07;6.00;;;3.73;;
8580;SDS011;4328;48.622;9.230;2022-11-03T01:03:34;5.23;;;3.20;;
8580;SDS011;4328;48.622;9.230;2022-11-03T01:06:01;5.40;;;3.83;;
8580;SDS011;4328;48.622;9.230;2022-11-03T01:09:01;4.83;;;3.67;;
8580;SDS011;4328;48.622;9.230;2022-11-03T01:11:27;4.87;;;3.63;;
8580;SDS011;4328;48.622;9.230;2022-11-03T01:14:09;4.17;;;3.40;;
8580;SDS011;4328;48.622;9.230;2022-11-03T01:16:36;5.03;;;3.53;;
8580;SDS011;4328;48.622;9.230;2022-11-03T01:19:03;4.83;;;3.50;;
8580;SDS011;4328;48.622;9.230;2022-11-03T01:21:29;5.20;;;3.60;;
8580;SDS011;4328;48.622;9.230;2022-11-03T01:23:56;5.43;;;3.50;;
8580;SDS011;4328;48.622;9.230;2022-11-03T01:26:26;4.07;;;3.53;;
8580;SDS011;4328;48.622;9.230;2022-11-03T01:28:53;7.80;;;3.43;;
8580;SDS011;4328;48.622;9.230;2022-11-03T01:31:20;6.40;;;3.70;;
8580;SDS011;4328;48.622;9.230;2022-11-03T01:33:48;4.43;;;2.87;;
8580;SDS011;4328;48.622;9.230;2022-11-03T01:36:15;4.03;;;3.23;;
8580;SDS011;4328;48.622;9.230;2022-11-03T01:38:41;7.73;;;3.40;;
8580;SDS011;4328;48.622;9.230;2022-11-03T01:41:09;5.80;;;3.20;;
8580;SDS011;4328;48.622;9.230;2022-11-03T01:43:38;6.33;;;3.00;;
8580;SDS011;4328;48.622;9.230;2022-11-03T01:46:06;3.37;;;2.90;;
8580;SDS011;4328;48.622;9.230;2022-11-03T01:48:34;4.27;;;2.87;;
8580;SDS011;4328;48.622;9.230;2022-11-03T01:51:01;3.90;;;3.10;;
8580;SDS011;4328;48.622;9.230;2022-11-03T01:53:30;6.47;;;3.60;;
8580;SDS011;4328;48.622;9.230;2022-11-03T01:55:56;5.43;;;3.43;;
8580;SDS011;4328;48.622;9.230;2022-11-03T01:58:24;4.23;;;3.37;;
8580;SDS011;4328;48.622;9.230;2022-11-03T02:00:53;3.90;;;3.30;;
8580;SDS011;4328;48.622;9.230;2022-11-03T02:03:22;3.93;;;3.20;;
8580;SDS011;4328;48.622;9.230;2022-11-03T02:05:49;4.20;;;3.23;;
8580;SDS011;4328;48.622;9.230;2022-11-03T02:08:16;3.77;;;3.20;;
8580;SDS011;4328;48.622;9.230;2022-11-03T02:10:45;6.97;;;3.50;;
8580;SDS011;4328;48.622;9.230;2022-11-03T02:13:14;3.27;;;2.97;;
8580;SDS011;4328;48.622;9.230;2022-11-03T02:15:43;5.67;;;3.43;;
8580;SDS011;4328;48.622;9.230;2022-11-03T02:18:10;3.77;;;3.30;;
8580;SDS011;4328;48.622;9.230;2022-11-03T02:20:37;4.17;;;3.27;;
8580;SDS011;4328;48.622;9.230;2022-11-03T02:25:43;4.47;;;3.43;;
8580;SDS011;4328;48.622;9.230;2022-11-03T02:28:10;5.80;;;3.40;;
8580;SDS011;4328;48.622;9.230;2022-11-03T02:30:38;7.17;;;3.67;;
8580;SDS011;4328;48.622;9.230;2022-11-03T02:33:09;4.43;;;3.30;;
8580;SDS011;4328;48.622;9.230;2022-11-03T02:35:37;3.50;;;3.20;;
8580;SDS011;4328;48.622;9.230;2022-11-03T02:38:06;3.77;;;3.17;;
8580;SDS011;4328;48.622;9.230;2022-11-03T02:40:35;5.27;;;3.63;;
8580;SDS011;4328;48.622;9.230;2022-11-03T02:43:03;5.00;;;3.60;;
8580;SDS011;4328;48.622;9.230;2022-11-03T02:45:31;4.60;;;3.63;;
8580;SDS011;4328;48.622;9.230;2022-11-03T02:47:57;6.30;;;4.00;;
8580;SDS011;4328;48.622;9.230;2022-11-03T02:50:25;6.83;;;4.30;;
8580;SDS011;4328;48.622;9.230;2022-11-03T02:52:51;4.13;;;3.80;;
8580;SDS011;4328;48.622;9.230;2022-11-03T02:55:19;4.33;;;3.17;;
8580;SDS011;4328;48.622;9.230;2022-11-03T02:57:49;4.77;;;3.73;;
8580;SDS011;4328;48.622;9.230;2022-11-03T03:00:19;7.27;;;4.17;;
8580;SDS011;4328;48.622;9.230;2022-11-03T03:02:48;7.40;;;4.33;;
8580;SDS011;4328;48.622;9.230;2022-11-03T03:05:16;5.60;;;3.50;;
8580;SDS011;4328;48.622;9.230;2022-11-03T03:07:45;6.87;;;4.33;;
8580;SDS011;4328;48.622;9.230;2022-11-03T03:10:12;4.80;;;3.63;;
8580;SDS011;4328;48.622;9.230;2022-11-03T03:12:40;3.90;;;3.37;;
8580;SDS011;4328;48.622;9.230;2022-11-03T03:15:08;5.00;;;3.70;;
8580;SDS011;4328;48.622;9.230;2022-11-03T03:17:39;5.97;;;3.60;;
8580;SDS011;4328;48.622;9.230;2022-11-03T03:20:09;4.97;;;3.90;;
8580;SDS011;4328;48.622;9.230;2022-11-03T03:22:40;5.50;;;3.33;;
8580;SDS011;4328;48.622;9.230;2022-11-03T03:25:10;5.27;;;3.63;;
8580;SDS011;4328;48.622;9.230;2022-11-03T03:27:38;4.60;;;3.30;;
8580;SDS011;4328;48.622;9.230;2022-11-03T03:30:07;5.17;;;3.40;;
8580;SDS011;4328;48.622;9.230;2022-11-03T03:32:34;4.70;;;3.07;;
8580;SDS011;4328;48.622;9.230;2022-11-03T03:35:03;4.83;;;3.20;;
8580;SDS011;4328;48.622;9.230;2022-11-03T03:37:31;6.33;;;3.50;;
8580;SDS011;4328;48.622;9.230;2022-11-03T03:39:59;4.97;;;3.43;;
8580;SDS011;4328;48.622;9.230;2022-11-03T03:42:28;4.67;;;3.23;;
8580;SDS011;4328;48.622;9.230;2022-11-03T03:44:55;3.80;;;2.77;;
8580;SDS011;4328;48.622;9.230;2022-11-03T03:47:22;6.77;;;3.43;;
8580;SDS011;4328;48.622;9.230;2022-11-03T03:49:50;3.50;;;3.20;;
8580;SDS011;4328;48.622;9.230;2022-11-03T03:52:18;6.90;;;3.57;;
8580;SDS011;4328;48.622;9.230;2022-11-03T03:54:45;4.57;;;3.50;;
8580;SDS011;4328;48.622;9.230;2022-11-03T03:57:12;4.43;;;3.50;;
8580;SDS011;4328;48.622;9.230;2022-11-03T03:59:39;3.33;;;3.00;;
8580;SDS011;4328;48.622;9.230;2022-11-03T04:02:06;4.23;;;3.40;;
8580;SDS011;4328;48.622;9.230;2022-11-03T04:04:32;6.37;;;3.00;;
8580;SDS011;4328;48.622;9.230;2022-11-03T04:06:59;6.10;;;3.40;;
8580;SDS011;4328;48.622;9.230;2022-11-03T04:09:43;4.87;;;3.27;;
8580;SDS011;4328;48.622;9.230;2022-11-03T04:12:10;6.53;;;3.57;;
8580;SDS011;4328;48.622;9.230;2022-11-03T04:14:54;4.10;;;3.40;;
8580;SDS011;4328;48.622;9.230;2022-11-03T04:17:38;5.90;;;3.53;;
8580;SDS011;4328;48.622;9.230;2022-11-03T04:20:25;4.37;;;3.60;;
8580;SDS011;4328;48.622;9.230;2022-11-03T04:23:09;5.03;;;3.23;;
8580;SDS011;4328;48.622;9.230;2022-11-03T04:25:36;3.60;;;3.30;;
8580;SDS011;4328;48.622;9.230;2022-11-03T04:28:04;4.70;;;3.73;;
8580;SDS011;4328;48.622;9.230;2022-11-03T04:30:33;5.00;;;3.20;;
8580;SDS011;4328;48.622;9.230;2022-11-03T04:32:59;4.43;;;3.30;;
8580;SDS011;4328;48.622;9.230;2022-11-03T04:35:26;4.30;;;3.43;;
8580;SDS011;4328;48.622;9.230;2022-11-03T04:37:53;4.83;;;3.40;;
8580;SDS011;4328;48.622;9.230;2022-11-03T04:40:21;4.40;;;3.07;;
8580;SDS011;4328;48.622;9.230;2022-11-03T04:42:49;3.77;;;3.07;;
8580;SDS011;4328;48.622;9.230;2022-11-03T04:45:19;3.27;;;2.97;;
8580;SDS011;4328;48.622;9.230;2022-11-03T04:47:47;3.40;;;3.00;;
8580;SDS011;4328;48.622;9.230;2022-11-03T04:50:14;3.90;;;3.50;;
8580;SDS011;4328;48.622;9.230;2022-11-03T04:52:42;4.10;;;3.23;;
8580;SDS011;4328;48.622;9.230;2022-11-03T04:55:10;4.87;;;3.70;;
8580;SDS011;4328;48.622;9.230;2022-11-03T04:57:37;3.77;;;3.43;;
8580;SDS011;4328;48.622;9.230;2022-11-03T05:00:09;5.83;;;3.27;;
8580;SDS011;4328;48.622;9.230;2022-11-03T05:02:38;4.93;;;3.53;;
8580;SDS011;4328;48.622;9.230;2022-11-03T05:05:07;3.77;;;3.37;;
8580;SDS011;4328;48.622;9.230;2022-11-03T05:07:39;7.23;;;3.70;;
8580;SDS011;4328;48.622;9.230;2022-11-03T05:10:06;4.80;;;3.63;;
8580;SDS011;4328;48.622;9.230;2022-11-03T05:12:32;4.50;;;3.30;;
8580;SDS011;4328;48.622;9.230;2022-11-03T05:14:59;4.53;;;3.27;;
8580;SDS011;4328;48.622;9.230;2022-11-03T05:17:28;4.27;;;3.40;;
8580;SDS011;4328;48.622;9.230;2022-11-03T05:19:55;5.77;;;3.60;;
8580;SDS011;4328;48.622;9.230;2022-11-03T05:22:22;5.80;;;3.50;;
8580;SDS011;4328;48.622;9.230;2022-11-03T05:24:54;4.27;;;3.43;;
8580;SDS011;4328;48.622;9.230;2022-11-03T05:27:21;6.73;;;3.90;;
8580;SDS011;4328;48.622;9.230;2022-11-03T05:29:47;4.50;;;3.43;;
8580;SDS011;4328;48.622;9.230;2022-11-03T05:32:15;5.87;;;3.60;;
8580;SDS011;4328;48.622;9.230;2022-11-03T05:34:45;4.77;;;3.47;;
8580;SDS011;4328;48.622;9.230;2022-11-03T05:37:18;4.57;;;3.60;;
8580;SDS011;4328;48.622;9.230;2022-11-03T05:39:45;5.70;;;3.73;;
8580;SDS011;4328;48.622;9.230;2022-11-03T05:42:17;6.70;;;3.40;;
8580;SDS011;4328;48.622;9.230;2022-11-03T05:44:45;5.20;;;3.67;;
8580;SDS011;4328;48.622;9.230;2022-11-03T05:47:13;6.30;;;4.00;;
8580;SDS011;4328;48.622;9.230;2022-11-03T05:49:43;5.13;;;3.73;;
8580;SDS011;4328;48.622;9.230;2022-11-03T05:52:12;4.47;;;3.77;;
8580;SDS011;4328;48.622;9.230;2022-11-03T05:54:39;7.13;;;3.83;;
8580;SDS011;4328;48.622;9.230;2022-11-03T05:57:07;4.47;;;3.80;;
8580;SDS011;4328;48.622;9.230;2022-11-03T05:59:33;5.47;;;3.63;;
8580;SDS011;4328;48.622;9.230;2022-11-03T06:02:00;4.13;;;3.70;;
8580;SDS011;4328;48.622;9.230;2022-11-03T06:04:27;6.13;;;3.80;;
8580;SDS011;4328;48.622;9.230;2022-11-03T06:06:54;5.13;;;3.80;;
8580;SDS011;4328;48.622;9.230;2022-11-03T06:09:23;4.93;;;3.87;;
8580;SDS011;4328;48.622;9.230;2022-11-03T06:11:50;6.73;;;4.27;;
8580;SDS011;4328;48.622;9.230;2022-11-03T06:14:17;7.53;;;4.20;;
8580;SDS011;4328;48.622;9.230;2022-11-03T06:16:45;9.60;;;4.50;;
8580;SDS011;4328;48.622;9.230;2022-11-03T06:21:58;5.53;;;4.67;;
8580;SDS011;4328;48.622;9.230;2022-11-03T06:24:29;7.43;;;3.90;;
8580;SDS011;4328;48.622;9.230;2022-11-03T06:26:56;7.90;;;4.33;;
8580;SDS011;4328;48.622;9.230;2022-11-03T06:29:23;6.40;;;4.67;;
8580;SDS011;4328;48.622;9.230;2022-11-03T06:31:50;5.20;;;4.70;;
8580;SDS011;4328;48.622;9.230;2022-11-03T06:34:27;8.17;;;4.60;;
8580;SDS011;4328;48.622;9.230;2022-11-03T06:36:56;5.57;;;4.70;;
8580;SDS011;4328;48.622;9.230;2022-11-03T06:39:24;8.60;;;4.80;;
8580;SDS011;4328;48.622;9.230;2022-11-03T06:41:51;6.80;;;4.43;;
8580;SDS011;4328;48.622;9.230;2022-11-03T06:44:19;6.50;;;4.40;;
8580;SDS011;4328;48.622;9.230;2022-11-03T06:46:47;9.07;;;4.93;;
8580;SDS011;4328;48.622;9.230;2022-11-03T06:51:58;7.20;;;4.67;;
8580;SDS011;4328;48.622;9.230;2022-11-03T06:54:27;6.70;;;4.30;;
8580;SDS011;4328;48.622;9.230;2022-11-03T06:56:55;7.67;;;4.50;;
8580;SDS011;4328;48.622;9.230;2022-11-03T06:59:21;6.20;;;4.50;;
8580;SDS011;4328;48.622;9.230;2022-11-03T07:01:49;5.67;;;4.37;;
8580;SDS011;4328;48.622;9.230;2022-11-03T07:04:18;7.27;;;4.23;;
8580;SDS011;4328;48.622;9.230;2022-11-03T07:06:45;4.57;;;4.10;;
8580;SDS011;4328;48.622;9.230;2022-11-03T07:09:13;6.27;;;4.07;;
8580;SDS011;4328;48.622;9.230;2022-11-03T07:11:41;5.20;;;3.57;;
8580;SDS011;4328;48.622;9.230;2022-11-03T07:14:10;3.77;;;3.47;;
8580;SDS011;4328;48.622;9.230;2022-11-03T07:16:38;5.57;;;3.90;;
8580;SDS011;4328;48.622;9.230;2022-11-03T07:19:09;5.00;;;3.43;;
8580;SDS011;4328;48.622;9.230;2022-11-03T07:21:39;6.37;;;5.13;;
8580;SDS011;4328;48.622;9.230;2022-11-03T07:24:11;4.67;;;4.17;;
8580;SDS011;4328;48.622;9.230;2022-11-03T07:26:38;5.70;;;4.90;;
8580;SDS011;4328;48.622;9.230;2022-11-03T07:29:06;7.43;;;5.67;;
8580;SDS011;4328;48.622;9.230;2022-11-03T07:31:34;4.50;;;3.97;;
8580;SDS011;4328;48.622;9.230;2022-11-03T07:34:01;6.53;;;4.90;;
8580;SDS011;4328;48.622;9.230;2022-11-03T07:36:27;5.63;;;4.30;;
8580;SDS011;4328;48.622;9.230;2022-11-03T07:38:56;6.87;;;4.13;;
8580;SDS011;4328;48.622;9.230;2022-11-03T07:41:25;5.30;;;4.17;;
8580;SDS011;4328;48.622;9.230;2022-11-03T07:43:53;7.87;;;6.27;;
8580;SDS011;4328;48.622;9.230;2022-11-03T07:46:21;5.93;;;4.80;;
8580;SDS011;4328;48.622;9.230;2022-11-03T07:48:49;4.40;;;4.00;;
8580;SDS011;4328;48.622;9.230;2022-11-03T07:51:18;5.47;;;4.20;;
8580;SDS011;4328;48.622;9.230;2022-11-03T07:53:45;5.13;;;4.20;;
8580;SDS011;4328;48.622;9.230;2022-11-03T07:56:12;4.03;;;3.63;;
8580;SDS011;4328;48.622;9.230;2022-11-03T07:58:40;5.57;;;4.00;;
8580;SDS011;4328;48.622;9.230;2022-11-03T08:01:14;4.13;;;3.70;;
8580;SDS011;4328;48.622;9.230;2022-11-03T08:03:43;6.50;;;4.17;;
8580;SDS011;4328;48.622;9.230;2022-11-03T08:06:11;4.20;;;3.77;;
8580;SDS011;4328;48.622;9.230;2022-11-03T08:08:37;4.00;;;3.47;;
8580;SDS011;4328;48.622;9.230;2022-11-03T08:11:05;5.70;;;3.73;;
8580;SDS011;4328;48.622;9.230;2022-11-03T08:13:31;4.03;;;3.63;;
8580;SDS011;4328;48.622;9.230;2022-11-03T08:15:58;6.77;;;3.83;;
8580;SDS011;4328;48.622;9.230;2022-11-03T08:18:24;6.10;;;3.97;;
8580;SDS011;4328;48.622;9.230;2022-11-03T08:20:51;4.00;;;3.57;;
8580;SDS011;4328;48.622;9.230;2022-11-03T08:23:19;3.50;;;3.20;;
8580;SDS011;4328;48.622;9.230;2022-11-03T08:25:45;4.00;;;3.63;;
8580;SDS011;4328;48.622;9.230;2022-11-03T08:28:11;4.53;;;3.17;;
8580;SDS011;4328;48.622;9.230;2022-11-03T08:30:38;4.10;;;3.80;;
8580;SDS011;4328;48.622;9.230;2022-11-03T08:33:04;4.93;;;4.07;;
8580;SDS011;4328;48.622;9.230;2022-11-03T08:35:31;4.87;;;3.70;;
8580;SDS011;4328;48.622;9.230;2022-11-03T08:37:57;3.90;;;3.60;;
8580;SDS011;4328;48.622;9.230;2022-11-03T08:40:25;4.40;;;3.90;;
8580;SDS011;4328;48.622;9.230;2022-11-03T08:42:51;4.10;;;3.70;;
8580;SDS011;4328;48.622;9.230;2022-11-03T08:45:18;4.10;;;3.70;;
8580;SDS011;4328;48.622;9.230;2022-11-03T08:47:44;6.27;;;3.90;;
8580;SDS011;4328;48.622;9.230;2022-11-03T08:50:11;5.57;;;3.90;;
8580;SDS011;4328;48.622;9.230;2022-11-03T08:52:37;3.93;;;3.53;;
8580;SDS011;4328;48.622;9.230;2022-11-03T08:55:04;4.27;;;3.70;;
8580;SDS011;4328;48.622;9.230;2022-11-03T08:57:32;4.83;;;3.70;;
8580;SDS011;4328;48.622;9.230;2022-11-03T08:59:58;3.93;;;3.50;;
8580;SDS011;4328;48.622;9.230;2022-11-03T09:02:24;4.83;;;3.77;;
8580;SDS011;4328;48.622;9.230;2022-11-03T09:04:51;5.10;;;3.90;;
8580;SDS011;4328;48.622;9.230;2022-11-03T09:07:17;4.87;;;3.87;;
8580;SDS011;4328;48.622;9.230;2022-11-03T09:09:44;4.37;;;3.80;;
8580;SDS011;4328;48.622;9.230;2022-11-03T09:12:10;5.43;;;3.97;;
8580;SDS011;4328;48.622;9.230;2022-11-03T09:14:38;3.80;;;3.47;;
8580;SDS011;4328;48.622;9.230;2022-11-03T09:17:04;3.83;;;3.37;;
8580;SDS011;4328;48.622;9.230;2022-11-03T09:19:31;5.10;;;3.50;;
8580;SDS011;4328;48.622;9.230;2022-11-03T09:21:57;15.77;;;14.47;;
8580;SDS011;4328;48.622;9.230;2022-11-03T09:24:24;10.27;;;9.57;;
8580;SDS011;4328;48.622;9.230;2022-11-03T09:26:51;4.57;;;3.90;;
8580;SDS011;4328;48.622;9.230;2022-11-03T09:29:18;5.90;;;5.40;;
8580;SDS011;4328;48.622;9.230;2022-11-03T09:31:45;4.57;;;3.40;;
8580;SDS011;4328;48.622;9.230;2022-11-03T09:34:12;4.60;;;3.57;;
8580;SDS011;4328;48.622;9.230;2022-11-03T09:36:39;4.07;;;3.20;;
8580;SDS011;4328;48.622;9.230;2022-11-03T09:39:05;5.27;;;3.03;;
8580;SDS011;4328;48.622;9.230;2022-11-03T09:41:32;5.53;;;3.40;;
8580;SDS011;4328;48.622;9.230;2022-11-03T09:43:58;5.03;;;4.40;;
8580;SDS011;4328;48.622;9.230;2022-11-03T09:46:25;3.90;;;3.40;;
8580;SDS011;4328;48.622;9.230;2022-11-03T09:48:54;3.67;;;3.10;;
8580;SDS011;4328;48.622;9.230;2022-11-03T09:51:21;4.30;;;3.43;;
8580;SDS011;4328;48.622;9.230;2022-11-03T09:53:48;5.13;;;4.00;;
8580;SDS011;4328;48.622;9.230;2022-11-03T09:56:15;5.93;;;3.90;;
8580;SDS011;4328;48.622;9.230;2022-11-03T09:58:43;4.63;;;4.27;;
8580;SDS011;4328;48.622;9.230;2022-11-03T10:01:09;5.17;;;4.10;;
8580;SDS011;4328;48.622;9.230;2022-11-03T10:03:36;7.57;;;4.77;;
8580;SDS011;4328;48.622;9.230;2022-11-03T10:06:06;5.33;;;4.70;;
8580;SDS011;4328;48.622;9.230;2022-11-03T10:08:32;4.87;;;4.47;;
8580;SDS011;4328;48.622;9.230;2022-11-03T10:10:59;6.33;;;4.50;;
8580;SDS011;4328;48.622;9.230;2022-11-03T10:13:28;7.27;;;4.70;;
8580;SDS011;4328;48.622;9.230;2022-11-03T10:15:55;5.30;;;4.80;;
8580;SDS011;4328;48.622;9.230;2022-11-03T10:18:22;5.50;;;5.00;;
8580;SDS011;4328;48.622;9.230;2022-11-03T10:20:49;5.93;;;5.20;;
8580;SDS011;4328;48.622;9.230;2022-11-03T10:23:16;7.27;;;5.33;;
8580;SDS011;4328;48.622;9.230;2022-11-03T10:25:43;6.50;;;5.20;;
8580;SDS011;4328;48.622;9.230;2022-11-03T10:28:14;5.50;;;4.97;;
8580;SDS011;4328;48.622;9.230;2022-11-03T10:30:51;5.20;;;4.70;;
8580;SDS011;4328;48.622;9.230;2022-11-03T10:33:24;6.43;;;4.70;;
8580;SDS011;4328;48.622;9.230;2022-11-03T10:35:52;7.03;;;5.63;;
8580;SDS011;4328;48.622;9.230;2022-11-03T10:38:23;5.47;;;4.97;;
8580;SDS011;4328;48.622;9.230;2022-11-03T10:40:51;5.83;;;5.00;;
8580;SDS011;4328;48.622;9.230;2022-11-03T10:43:18;5.13;;;4.63;;
8580;SDS011;4328;48.622;9.230;2022-11-03T10:45:44;6.23;;;4.43;;
8580;SDS011;4328;48.622;9.230;2022-11-03T10:48:11;4.97;;;4.17;;
8580;SDS011;4328;48.622;9.230;2022-11-03T10:50:37;5.10;;;4.70;;
8580;SDS011;4328;48.622;9.230;2022-11-03T10:53:04;4.97;;;4.57;;
8580;SDS011;4328;48.622;9.230;2022-11-03T10:55:32;5.17;;;4.60;;
8580;SDS011;4328;48.622;9.230;2022-11-03T10:57:59;4.83;;;4.43;;
8580;SDS011;4328;48.622;9.230;2022-11-03T11:00:25;6.50;;;4.80;;
8580;SDS011;4328;48.622;9.230;2022-11-03T11:02:56;5.17;;;4.03;;
8580;SDS011;4328;48.622;9.230;2022-11-03T11:05:24;4.90;;;4.33;;
8580;SDS011;4328;48.622;9.230;2022-11-03T11:07:51;13.07;;;8.67;;
8580;SDS011;4328;48.622;9.230;2022-11-03T11:10:18;10.50;;;8.40;;
8580;SDS011;4328;48.622;9.230;2022-11-03T11:15:35;7.63;;;6.83;;
8580;SDS011;4328;48.622;9.230;2022-11-03T11:18:02;13.43;;;8.13;;
8580;SDS011;4328;48.622;9.230;2022-11-03T11:20:36;8.30;;;6.23;;
8580;SDS011;4328;48.622;9.230;2022-11-03T11:26:10;6.73;;;5.07;;
8580;SDS011;4328;48.622;9.230;2022-11-03T11:28:39;6.57;;;5.97;;
8580;SDS011;4328;48.622;9.230;2022-11-03T11:36:34;6.33;;;4.77;;
8580;SDS011;4328;48.622;9.230;2022-11-03T11:39:01;5.07;;;4.30;;
8580;SDS011;4328;48.622;9.230;2022-11-03T11:47:02;5.37;;;4.60;;
8580;SDS011;4328;48.622;9.230;2022-11-03T11:49:28;5.37;;;4.37;;
8580;SDS011;4328;48.622;9.230;2022-11-03T11:51:56;5.13;;;4.67;;
8580;SDS011;4328;48.622;9.230;2022-11-03T11:54:25;4.73;;;4.33;;
8580;SDS011;4328;48.622;9.230;2022-11-03T11:56:52;5.43;;;4.93;;
8580;SDS011;4328;48.622;9.230;2022-11-03T11:59:20;5.80;;;5.17;;
8580;SDS011;4328;48.622;9.230;2022-11-03T12:01:47;6.13;;;5.40;;
8580;SDS011;4328;48.622;9.230;2022-11-03T12:04:16;6.80;;;5.90;;
8580;SDS011;4328;48.622;9.230;2022-11-03T12:06:43;5.63;;;5.03;;
8580;SDS011;4328;48.622;9.230;2022-11-03T12:09:15;5.70;;;4.57;;
8580;SDS011;4328;48.622;9.230;2022-11-03T12:11:44;5.57;;;4.40;;
8580;SDS011;4328;48.622;9.230;2022-11-03T12:16:55;7.60;;;4.47;;
8580;SDS011;4328;48.622;9.230;2022-11-03T12:19:35;5.17;;;4.67;;
8580;SDS011;4328;48.622;9.230;2022-11-03T12:22:02;7.13;;;4.63;;
8580;SDS011;4328;48.622;9.230;2022-11-03T12:24:35;6.23;;;4.67;;
8580;SDS011;4328;48.622;9.230;2022-11-03T12:27:02;5.53;;;5.10;;
8580;SDS011;4328;48.622;9.230;2022-11-03T12:29:29;5.33;;;4.83;;
8580;SDS011;4328;48.622;9.230;2022-11-03T12:31:56;5.80;;;5.20;;
8580;SDS011;4328;48.622;9.230;2022-11-03T12:34:22;6.07;;;5.40;;
8580;SDS011;4328;48.622;9.230;2022-11-03T12:36:49;7.77;;;5.37;;
8580;SDS011;4328;48.622;9.230;2022-11-03T12:39:15;7.60;;;5.10;;
8580;SDS011;4328;48.622;9.230;2022-11-03T12:41:43;5.77;;;5.00;;
8580;SDS011;4328;48.622;9.230;2022-11-03T12:44:09;6.17;;;4.77;;
8580;SDS011;4328;48.622;9.230;2022-11-03T12:46:36;6.40;;;4.87;;
8580;SDS011;4328;48.622;9.230;2022-11-03T12:49:02;7.83;;;5.10;;
8580;SDS011;4328;48.622;9.230;2022-11-03T12:51:28;5.97;;;4.60;;
8580;SDS011;4328;48.622;9.230;2022-11-03T12:53:55;7.83;;;5.40;;
8580;SDS011;4328;48.622;9.230;2022-11-03T12:56:21;5.40;;;4.90;;
8580;SDS011;4328;48.622;9.230;2022-11-03T12:58:49;5.20;;;4.70;;
8580;SDS011;4328;48.622;9.230;2022-11-03T13:01:16;6.67;;;5.23;;
8580;SDS011;4328;48.622;9.230;2022-11-03T13:03:42;8.40;;;5.30;;
8580;SDS011;4328;48.622;9.230;2022-11-03T13:06:09;5.90;;;5.00;;
8580;SDS011;4328;48.622;9.230;2022-11-03T13:08:38;6.03;;;5.07;;
8580;SDS011;4328;48.622;9.230;2022-11-03T13:11:05;7.00;;;5.07;;
8580;SDS011;4328;48.622;9.230;2022-11-03T13:13:53;5.17;;;4.60;;
8580;SDS011;4328;48.622;9.230;2022-11-03T13:16:19;6.90;;;5.77;;
8580;SDS011;4328;48.622;9.230;2022-11-03T13:18:46;6.80;;;5.43;;
8580;SDS011;4328;48.622;9.230;2022-11-03T13:21:12;9.27;;;5.77;;
8580;SDS011;4328;48.622;9.230;2022-11-03T13:23:39;9.67;;;5.70;;
8580;SDS011;4328;48.622;9.230;2022-11-03T13:26:05;7.47;;;5.37;;
8580;SDS011;4328;48.622;9.230;2022-11-03T13:28:32;7.63;;;5.77;;
8580;SDS011;4328;48.622;9.230;2022-11-03T13:31:00;8.07;;;5.43;;
8580;SDS011;4328;48.622;9.230;2022-11-03T13:33:26;6.10;;;5.50;;
8580;SDS011;4328;48.622;9.230;2022-11-03T13:35:53;6.50;;;5.83;;
8580;SDS011;4328;48.622;9.230;2022-11-03T13:38:19;10.17;;;7.60;;
8580;SDS011;4328;48.622;9.230;2022-11-03T13:40:46;6.23;;;5.07;;
8580;SDS011;4328;48.622;9.230;2022-11-03T13:43:12;6.90;;;5.63;;
8580;SDS011;4328;48.622;9.230;2022-11-03T13:45:38;10.07;;;9.07;;
8580;SDS011;4328;48.622;9.230;2022-11-03T13:48:06;13.73;;;11.87;;
8580;SDS011;4328;48.622;9.230;2022-11-03T13:50:33;7.73;;;6.97;;
8580;SDS011;4328;48.622;9.230;2022-11-03T13:52:59;7.63;;;6.00;;
8580;SDS011;4328;48.622;9.230;2022-11-03T13:55:26;7.00;;;6.23;;
8580;SDS011;4328;48.622;9.230;2022-11-03T13:57:53;9.97;;;6.50;;
8580;SDS011;4328;48.622;9.230;2022-11-03T14:00:19;7.47;;;6.00;;
8580;SDS011;4328;48.622;9.230;2022-11-03T14:02:46;10.43;;;6.80;;
8580;SDS011;4328;48.622;9.230;2022-11-03T14:05:16;10.03;;;7.13;;
8580;SDS011;4328;48.622;9.230;2022-11-03T14:07:42;7.87;;;7.07;;
8580;SDS011;4328;48.622;9.230;2022-11-03T14:10:09;7.37;;;6.67;;
8580;SDS011;4328;48.622;9.230;2022-11-03T14:12:35;10.07;;;7.37;;
8580;SDS011;4328;48.622;9.230;2022-11-03T14:15:03;9.43;;;7.43;;
8580;SDS011;4328;48.622;9.230;2022-11-03T14:17:30;11.50;;;10.30;;
8580;SDS011;4328;48.622;9.230;2022-11-03T14:19:56;10.63;;;7.10;;
8580;SDS011;4328;48.622;9.230;2022-11-03T14:22:24;10.10;;;6.93;;
8580;SDS011;4328;48.622;9.230;2022-11-03T14:24:51;9.00;;;7.43;;
8580;SDS011;4328;48.622;9.230;2022-11-03T14:27:18;8.57;;;6.63;;
8580;SDS011;4328;48.622;9.230;2022-11-03T14:29:44;7.47;;;5.50;;
8580;SDS011;4328;48.622;9.230;2022-11-03T14:32:13;6.40;;;5.33;;
8580;SDS011;4328;48.622;9.230;2022-11-03T14:34:40;6.33;;;4.83;;
8580;SDS011;4328;48.622;9.230;2022-11-03T14:37:07;7.43;;;5.57;;
8580;SDS011;4328;48.622;9.230;2022-11-03T14:39:36;8.30;;;5.47;;
8580;SDS011;4328;48.622;9.230;2022-11-03T14:42:02;7.33;;;5.67;;
8580;SDS011;4328;48.622;9.230;2022-11-03T14:44:28;6.47;;;5.73;;
8580;SDS011;4328;48.622;9.230;2022-11-03T14:46:54;6.80;;;5.67;;
8580;SDS011;4328;48.622;9.230;2022-11-03T14:49:21;8.30;;;6.20;;
8580;SDS011;4328;48.622;9.230;2022-11-03T14:51:48;6.60;;;5.90;;
8580;SDS011;4328;48.622;9.230;2022-11-03T14:54:15;7.70;;;5.77;;
8580;SDS011;4328;48.622;9.230;2022-11-03T14:56:42;7.03;;;5.27;;
8580;SDS011;4328;48.622;9.230;2022-11-03T14:59:09;7.40;;;5.30;;
8580;SDS011;4328;48.622;9.230;2022-11-03T15:01:35;7.07;;;5.77;;
8580;SDS011;4328;48.622;9.230;2022-11-03T15:04:03;9.30;;;6.57;;
8580;SDS011;4328;48.622;9.230;2022-11-03T15:06:29;6.57;;;5.33;;
8580;SDS011;4328;48.622;9.230;2022-11-03T15:08:55;6.10;;;5.50;;
8580;SDS011;4328;48.622;9.230;2022-11-03T15:11:22;9.03;;;5.60;;
8580;SDS011;4328;48.622;9.230;2022-11-03T15:13:50;8.13;;;5.37;;
8580;SDS011;4328;48.622;9.230;2022-11-03T15:16:18;7.40;;;5.40;;
8580;SDS011;4328;48.622;9.230;2022-11-03T15:18:45;11.10;;;6.73;;
8580;SDS011;4328;48.622;9.230;2022-11-03T15:21:11;12.33;;;6.57;;
8580;SDS011;4328;48.622;9.230;2022-11-03T15:23:38;7.57;;;5.67;;
8580;SDS011;4328;48.622;9.230;2022-11-03T15:26:04;5.63;;;4.90;;
8580;SDS011;4328;48.622;9.230;2022-11-03T15:28:31;6.20;;;5.30;;
8580;SDS011;4328;48.622;9.230;2022-11-03T15:30:59;5.50;;;4.90;;
8580;SDS011;4328;48.622;9.230;2022-11-03T15:33:26;5.40;;;4.90;;
8580;SDS011;4328;48.622;9.230;2022-11-03T15:35:52;5.93;;;5.40;;
8580;SDS011;4328;48.622;9.230;2022-11-03T15:38:19;7.90;;;5.40;;
8580;SDS011;4328;48.622;9.230;2022-11-03T15:40:45;5.70;;;5.20;;
8580;SDS011;4328;48.622;9.230;2022-11-03T15:43:12;9.57;;;7.73;;
8580;SDS011;4328;48.622;9.230;2022-11-03T15:45:39;15.37;;;11.00;;
8580;SDS011;4328;48.622;9.230;2022-11-03T15:48:07;11.07;;;9.03;;